Time;durP1;ratioP1;P1;durP2;ratioP2;P2;SDS_P1;SDS_P2;PMS_P1;PMS_P2;Temp;Humidity;BMP_temperature;BMP_pressure;BME280_temperature;BME280_humidity;BME280_pressure;Samples;Min_cycle;Max_cycle;Signal;HPM_P1;HPM_P2
2021/05/06 00:04:34;;;;;;;3.70;1.60;;;;;;;12.83;56.33;99571.25;1744238;80;21964;-74
2021/05/06 00:33:46;;;;;;;3.50;2.00;;;;;;;12.47;57.13;99552.84;1738272;80;21199;-73
2021/05/06 00:36:14;;;;;;;4.22;1.90;;;;;;;12.42;57.38;99546.49;1741539;81;21574;-73
2021/05/06 00:44:41;;;;;;;4.80;1.95;;;;;;;12.27;58.02;99531.22;1795940;78;21580;-72
2021/05/06 00:55:02;;;;;;;6.53;1.87;;;;;;;12.13;58.88;99521.81;1784042;79;22275;-72
2021/05/06 01:02:54;;;;;;;6.00;1.95;;;;;;;12.10;59.35;99525.07;1770219;79;21259;-73
2021/05/06 01:05:19;;;;;;;4.53;1.80;;;;;;;12.10;59.27;99525.07;1780908;78;21208;-73
2021/05/06 01:12:55;;;;;;;5.50;1.98;;;;;;;12.06;59.48;99506.13;1806152;77;21278;-72
2021/05/06 01:15:24;;;;;;;4.65;2.00;;;;;;;12.06;59.54;99505.34;1809793;78;21068;-72
2021/05/06 01:17:52;;;;;;;6.85;1.90;;;;;;;12.02;59.47;99494.97;1794945;78;21095;-72
2021/05/06 01:20:21;;;;;;;4.50;2.00;;;;;;;11.97;59.51;99493.16;1802482;77;21633;-74
2021/05/06 01:22:49;;;;;;;6.15;1.80;;;;;;;11.92;59.63;99502.06;1799593;78;21178;-73
2021/05/06 01:25:18;;;;;;;5.58;1.80;;;;;;;11.85;59.63;99498.97;1802210;78;21511;-73
2021/05/06 01:28:01;;;;;;;4.05;2.10;;;;;;;11.81;59.73;99505.14;1795889;77;21096;-73
2021/05/06 01:30:40;;;;;;;5.72;2.00;;;;;;;11.77;59.78;99500.92;1805168;77;21230;-73
2021/05/06 01:35:56;;;;;;;4.33;2.12;;;;;;;11.67;60.06;99500.52;1806118;77;28100;-73
2021/05/06 01:41:25;;;;;;;5.50;1.90;;;;;;;11.64;60.22;99504.33;1808598;77;22759;-73
2021/05/06 01:46:33;;;;;;;3.67;1.82;;;;;;;11.56;60.30;99501.77;1798478;79;21124;-73
2021/05/06 01:49:13;;;;;;;3.17;1.70;;;;;;;11.55;60.31;99500.70;1797625;79;21056;-73
2021/05/06 01:57:31;;;;;;;4.40;2.02;;;;;;;11.53;60.39;99492.98;1789781;79;21194;-73
2021/05/06 01:59:46;;;;;;;2.60;1.80;;;;;;;11.46;60.53;99474.63;1789725;79;21123;-71
2021/05/06 02:02:11;;;;;;;4.70;1.70;;;;;;;11.43;60.69;99476.53;1795857;79;21166;-73
2021/05/06 02:04:40;;;;;;;3.47;1.60;;;;;;;11.41;60.75;99476.02;1792761;77;21127;-73
2021/05/06 02:07:09;;;;;;;5.55;2.00;;;;;;;11.40;60.98;99491.81;1802116;79;21976;-73
2021/05/06 02:09:50;;;;;;;3.83;2.10;;;;;;;11.44;61.04;99482.13;1842616;76;22908;-72
2021/05/06 02:12:20;;;;;;;4.78;2.00;;;;;;;11.40;61.04;99473.09;1802152;77;21101;-73
2021/05/06 02:14:57;;;;;;;4.87;2.15;;;;;;;11.40;60.96;99455.72;1836583;75;22273;-73
2021/05/06 02:17:23;;;;;;;5.33;1.75;;;;;;;11.40;60.96;99463.74;1829566;77;21667;-73
2021/05/06 02:19:52;;;;;;;4.30;1.82;;;;;;;11.40;61.11;99455.72;1827244;77;21177;-73
2021/05/06 02:22:21;;;;;;;4.22;2.20;;;;;;;11.40;61.16;99457.05;1838655;75;21665;-73
2021/05/06 02:24:51;;;;;;;5.95;1.98;;;;;;;11.41;61.15;99465.32;1848198;75;21149;-73
2021/05/06 02:27:19;;;;;;;6.83;1.82;;;;;;;11.42;61.27;99458.91;1826737;77;21359;-73
2021/05/06 02:29:48;;;;;;;4.15;1.85;;;;;;;11.42;61.28;99464.80;1847348;75;21157;-74
2021/05/06 02:32:16;;;;;;;3.15;1.87;;;;;;;11.41;61.31;99461.31;1839381;77;21581;-73
2021/05/06 02:34:47;;;;;;;5.78;2.20;;;;;;;11.41;61.24;99462.65;1820665;77;21179;-73
2021/05/06 02:37:16;;;;;;;4.20;1.77;;;;;;;11.38;61.15;99463.77;1826155;77;21180;-72
2021/05/06 02:39:46;;;;;;;6.83;2.08;;;;;;;11.36;61.22;99472.09;1842498;75;21195;-72
2021/05/06 02:42:14;;;;;;;4.30;2.00;;;;;;;11.32;61.30;99472.42;1833968;76;21592;-73
2021/05/06 02:44:43;;;;;;;4.70;1.90;;;;;;;11.28;61.22;99465.49;1832819;75;21149;-73
2021/05/06 02:47:10;;;;;;;4.28;1.80;;;;;;;11.23;61.37;99457.56;1804792;77;21575;-73
2021/05/06 02:49:44;;;;;;;6.42;2.33;;;;;;;11.19;61.46;99467.79;1837846;77;21177;-73
2021/05/06 02:52:27;;;;;;;4.00;1.60;;;;;;;11.14;61.64;99468.63;1836744;75;22216;-72
2021/05/06 02:54:56;;;;;;;3.62;1.90;;;;;;;11.10;61.77;99470.84;1833355;77;21047;-72
2021/05/06 03:05:35;;;;;;;4.03;1.90;;;;;;;10.99;62.41;99458.13;1822124;77;23309;-73
2021/05/06 03:08:14;;;;;;;6.40;2.27;;;;;;;10.93;62.57;99451.28;1778697;78;21112;-73
2021/05/06 03:24:24;;;;;;;3.30;1.82;;;;;;;11.04;63.07;99479.45;1798603;77;22220;-72
2021/05/06 03:26:52;;;;;;;3.47;1.75;;;;;;;11.16;63.06;99480.39;1803960;77;21179;-74
2021/05/06 03:29:25;;;;;;;4.45;2.00;;;;;;;11.26;62.93;99480.25;1791935;77;21120;-73
2021/05/06 03:32:03;;;;;;;3.75;2.00;;;;;;;11.38;62.72;99485.95;1800945;79;21115;-72
2021/05/06 03:34:40;;;;;;;3.80;2.10;;;;;;;11.49;62.43;99476.72;1802981;79;21123;-73
2021/05/06 03:42:53;;;;;;;4.70;2.20;;;;;;;11.95;61.41;99477.40;1837866;77;22726;-72
2021/05/06 04:12:39;;;;;;;4.42;1.60;;;;;;;12.10;59.46;99470.20;1824376;78;21610;-73
2021/05/06 04:25:57;;;;;;;4.22;1.87;;;;;;;12.46;58.24;99545.91;1765440;79;21203;-72
2021/05/06 04:39:10;;;;;;;4.00;1.83;;;;;;;12.84;56.79;99542.02;1799316;79;21852;-74
2021/05/06 05:03:45;;;;;;;;;;;;;;;13.67;54.00;99535.27;1799266;79;22814;-74
2021/05/06 05:06:09;;;;;;;2.73;1.60;;;;;;;13.63;54.13;99545.03;1796581;77;20242;-73
2021/05/06 05:08:45;;;;;;;3.20;1.60;;;;;;;13.61;54.16;99536.47;1799747;79;21295;-73
2021/05/06 05:14:30;;;;;;;2.93;1.57;;;;;;;13.59;54.24;99538.69;1799381;79;21283;-72
2021/05/06 05:25:08;;;;;;;5.47;1.63;;;;;;;13.51;54.56;99553.58;1791358;79;21559;-74
2021/05/06 05:27:37;;;;;;;2.87;1.67;;;;;;;13.55;54.64;99549.20;1800814;79;21320;-73
2021/05/06 05:30:07;;;;;;;3.20;1.90;;;;;;;13.56;54.66;99559.41;1793548;79;22173;-73
2021/05/06 05:32:37;;;;;;;5.27;1.80;;;;;;;13.54;54.66;99558.90;1790698;79;21365;-73
2021/05/06 05:38:04;;;;;;;4.70;2.03;;;;;;;13.52;54.92;99553.84;1831325;77;23371;-71
2021/05/06 05:40:34;;;;;;;3.53;1.80;;;;;;;13.47;55.08;99565.22;1815722;78;21216;-72
2021/05/06 05:46:18;;;;;;;3.83;2.00;;;;;;;13.57;55.22;99556.41;1789811;78;27885;-73
2021/05/06 05:56:30;;;;;;;5.80;2.00;;;;;;;13.74;54.71;99571.88;1762808;80;21410;-73
2021/05/06 05:58:58;;;;;;;4.10;2.07;;;;;;;13.75;54.69;99565.41;1771954;80;21415;-72
2021/05/06 06:01:28;;;;;;;5.77;1.97;;;;;;;13.76;54.81;99570.25;1775658;80;21355;-73
2021/05/06 06:03:56;;;;;;;3.57;2.00;;;;;;;13.83;54.84;99573.30;1766210;80;21780;-73
2021/05/06 06:06:25;;;;;;;6.03;2.00;;;;;;;13.88;54.49;99579.09;1777262;80;21470;-72
2021/05/06 06:08:53;;;;;;;5.23;2.13;;;;;;;13.87;54.57;99574.83;1760782;81;21827;-73
2021/05/06 06:11:21;;;;;;;7.53;2.40;;;;;;;13.88;54.41;99574.52;1757905;81;21345;-73
2021/05/06 06:13:51;;;;;;;3.47;1.87;;;;;;;13.80;54.62;99585.98;1761416;80;21341;-73
2021/05/06 06:16:24;;;;;;;6.53;2.20;;;;;;;13.71;54.66;99606.02;1749307;81;21301;-73
2021/05/06 06:18:57;;;;;;;4.00;1.90;;;;;;;13.61;55.02;99607.58;1759181;81;21752;-71
2021/05/06 06:24:07;;;;;;;6.33;2.40;;;;;;;13.53;55.63;99612.31;1748258;81;21381;-73
2021/05/06 06:26:37;;;;;;;5.03;2.17;;;;;;;13.50;55.75;99614.25;1751741;80;21175;-73
2021/05/06 06:31:50;;;;;;;4.33;2.30;;;;;;;13.73;55.76;99616.47;1830318;76;22732;-73
2021/05/06 06:34:18;;;;;;;5.23;2.13;;;;;;;13.78;55.52;99607.74;1832323;75;21584;-73
2021/05/06 06:36:47;;;;;;;5.03;2.47;;;;;;;13.89;55.21;99612.92;1825836;76;21458;-73
2021/05/06 06:39:16;;;;;;;4.40;2.17;;;;;;;13.99;55.11;99616.16;1835215;75;21771;-73
2021/05/06 06:41:45;;;;;;;4.53;2.37;;;;;;;14.12;55.02;99615.88;1843589;76;21702;-72
2021/05/06 06:44:14;;;;;;;4.67;2.30;;;;;;;14.25;54.39;99615.05;1792583;78;21399;-72
2021/05/06 06:46:43;;;;;;;5.53;2.17;;;;;;;14.31;54.39;99620.55;1832037;75;21772;-73
2021/05/06 06:49:11;;;;;;;4.07;2.50;;;;;;;14.34;54.42;99625.05;1839243;76;22735;-73
2021/05/06 06:51:40;;;;;;;4.57;2.27;;;;;;;14.34;54.59;99629.87;1813833;77;21407;-73
2021/05/06 06:54:09;;;;;;;5.43;2.27;;;;;;;14.41;54.80;99628.09;1805560;77;21480;-72
2021/05/06 06:56:37;;;;;;;4.00;2.33;;;;;;;14.45;54.76;99632.58;1791642;77;21422;-73
2021/05/06 06:59:05;;;;;;;6.43;2.73;;;;;;;14.48;54.71;99640.58;1799386;78;21466;-73
2021/05/06 07:01:36;;;;;;;4.20;2.40;;;;;;;14.38;54.99;99640.80;1807505;77;21538;-73
2021/05/06 07:04:06;;;;;;;5.20;2.70;;;;;;;14.16;55.41;99631.62;1817620;77;21426;-73
2021/05/06 07:06:34;;;;;;;7.07;3.17;;;;;;;14.11;56.04;99635.76;1838083;77;21688;-74
2021/05/06 07:09:05;;;;;;;8.07;2.77;;;;;;;14.11;56.04;99635.76;1812718;77;21436;-75
2021/05/06 07:11:33;;;;;;;6.47;2.90;;;;;;;13.98;56.81;99656.72;1792514;78;21400;-73
2021/05/06 07:14:02;;;;;;;7.10;3.07;;;;;;;13.89;57.08;99666.61;1840294;75;21449;-72
2021/05/06 07:16:30;;;;;;;4.60;2.40;;;;;;;13.89;57.08;99666.61;1851389;77;21959;-73
2021/05/06 07:19:00;;;;;;;5.13;2.93;;;;;;;13.88;57.31;99686.47;1836904;76;21487;-73
2021/05/06 07:21:30;;;;;;;6.43;3.33;;;;;;;13.82;57.31;99675.85;1805581;78;21390;-73
2021/05/06 07:23:59;;;;;;;6.70;2.93;;;;;;;13.76;57.37;99682.41;1835153;76;21454;-73
2021/05/06 07:26:29;;;;;;;4.67;2.63;;;;;;;13.75;57.80;99685.38;1820113;76;21896;-73
2021/05/06 07:28:58;;;;;;;5.03;2.83;;;;;;;13.80;58.14;99690.66;1816347;76;21456;-74
2021/05/06 07:31:28;;;;;;;5.33;2.90;;;;;;;13.92;58.51;99684.77;1821855;76;21438;-73
2021/05/06 07:33:57;;;;;;;6.03;2.90;;;;;;;14.06;58.45;99682.88;1816018;78;21393;-74
2021/05/06 07:36:27;;;;;;;6.60;3.10;;;;;;;14.27;58.83;99679.98;1825774;76;21542;-74
2021/05/06 07:38:56;;;;;;;5.73;2.90;;;;;;;14.57;58.22;99691.16;1812478;76;22318;-73
2021/05/06 07:41:26;;;;;;;5.00;2.80;;;;;;;14.75;57.86;99717.64;1819019;77;21981;-76
2021/05/06 07:43:56;;;;;;;5.07;2.50;;;;;;;14.83;57.13;99720.92;1807134;77;21537;-73
2021/05/06 07:46:26;;;;;;;4.77;2.57;;;;;;;14.67;56.88;99727.20;1839021;75;21519;-72
2021/05/06 07:48:56;;;;;;;4.73;2.33;;;;;;;14.67;56.88;99727.20;1834727;75;21531;-73
2021/05/06 07:51:26;;;;;;;4.57;2.00;;;;;;;14.50;57.37;99737.78;1843671;76;22030;-73
2021/05/06 07:53:57;;;;;;;3.17;1.70;;;;;;;14.26;58.13;99744.20;1839614;77;22464;-73
2021/05/06 07:56:26;;;;;;;4.80;2.10;;;;;;;14.05;59.10;99736.34;1839600;75;21548;-77
2021/05/06 07:58:54;;;;;;;3.97;1.97;;;;;;;13.94;59.70;99760.44;1844484;77;21482;-78
2021/05/06 08:01:21;;;;;;;2.97;1.67;;;;;;;13.64;60.45;99769.88;1834559;77;21478;-74
2021/05/06 08:03:49;;;;;;;3.60;1.70;;;;;;;13.64;60.45;99769.88;1849418;77;22129;-74
2021/05/06 08:06:20;;;;;;;3.50;1.40;;;;;;;13.45;60.59;99768.59;1823939;77;21315;-74
2021/05/06 08:08:52;;;;;;;3.10;1.30;;;;;;;13.34;60.43;99769.31;1835098;77;21470;-76
2021/05/06 08:11:18;;;;;;;4.83;1.17;;;;;;;13.40;59.70;99778.08;1832661;75;21460;-74
2021/05/06 08:13:48;;;;;;;2.47;0.90;;;;;;;13.54;59.58;99774.88;1835906;76;21444;-74
2021/05/06 08:16:16;;;;;;;1.77;0.80;;;;;;;13.60;57.74;99796.50;1832466;75;21345;-74
2021/05/06 08:18:44;;;;;;;1.77;0.90;;;;;;;13.63;56.41;99798.59;1829403;76;21327;-76
2021/05/06 08:21:12;;;;;;;2.93;0.80;;;;;;;13.67;56.21;99800.14;1831373;76;21388;-74
2021/05/06 08:23:40;;;;;;;1.40;0.90;;;;;;;13.74;56.13;99818.78;1823576;76;21453;-72
2021/05/06 08:26:09;;;;;;;2.43;1.00;;;;;;;13.74;55.13;99803.23;1841241;77;21554;-73
2021/05/06 08:28:39;;;;;;;1.30;0.80;;;;;;;13.56;55.23;99811.05;1820683;77;21475;-75
2021/05/06 08:31:07;;;;;;;3.47;1.37;;;;;;;13.45;56.32;99811.51;1837253;77;21491;-75
2021/05/06 08:33:36;;;;;;;2.00;0.90;;;;;;;13.39;56.44;99808.11;1830207;77;21873;-74
2021/05/06 08:36:04;;;;;;;1.30;0.90;;;;;;;13.32;56.71;99809.83;1846910;77;21909;-72
2021/05/06 08:38:32;;;;;;;1.50;0.70;;;;;;;13.36;56.94;99813.53;1855074;77;21494;-74
2021/05/06 08:41:00;;;;;;;2.23;1.10;;;;;;;13.47;56.83;99807.45;1841351;75;21386;-73
2021/05/06 08:43:33;;;;;;;2.40;1.00;;;;;;;13.55;55.91;99810.78;1832354;77;21406;-72
2021/05/06 08:45:58;;;;;;;2.37;0.87;;;;;;;13.56;56.22;99823.68;1841246;76;21766;-73
2021/05/06 08:48:26;;;;;;;1.73;0.90;;;;;;;13.56;55.84;99823.13;1860157;76;21390;-73
2021/05/06 08:50:55;;;;;;;2.30;1.00;;;;;;;13.58;55.74;99834.89;1847816;75;21481;-72
2021/05/06 08:53:23;;;;;;;3.97;1.00;;;;;;;13.55;56.00;99840.30;1832350;76;22142;-72
2021/05/06 08:55:56;;;;;;;4.90;1.50;;;;;;;13.54;56.58;99840.61;1803457;77;21414;-71
2021/05/06 08:58:24;;;;;;;3.03;0.93;;;;;;;13.51;56.20;99831.80;1816525;78;21368;-71
2021/05/06 09:00:52;;;;;;;3.10;1.07;;;;;;;13.46;56.31;99832.70;1817850;78;21447;-73
2021/05/06 09:03:19;;;;;;;2.03;0.93;;;;;;;13.46;57.09;99854.16;1808515;77;21469;-72
2021/05/06 09:06:19;;;;;;;1.60;0.90;;;;;;;13.44;58.12;99856.87;1805281;78;21411;-73
2021/05/06 09:09:00;;;;;;;4.67;1.00;;;;;;;13.42;57.56;99871.11;1801629;78;21438;-72
2021/05/06 09:11:34;;;;;;;1.40;0.97;;;;;;;13.35;57.83;99870.94;1800401;77;21393;-72
2021/05/06 09:14:08;;;;;;;2.50;1.10;;;;;;;13.27;57.54;99880.20;1812652;79;21344;-73
2021/05/06 09:16:41;;;;;;;1.80;1.10;;;;;;;13.20;57.88;99878.41;1805264;77;21411;-73
2021/05/06 09:19:15;;;;;;;3.63;1.10;;;;;;;13.15;58.15;99867.98;1817049;77;21379;-74
2021/05/06 09:21:45;;;;;;;2.97;1.10;;;;;;;13.22;58.13;99862.25;1802850;77;21401;-73
2021/05/06 09:26:59;;;;;;;1.23;0.93;;;;;;;13.59;57.70;99867.36;1808077;77;21360;-73
2021/05/06 09:29:37;;;;;;;1.40;0.80;;;;;;;13.90;54.65;99870.86;1844500;76;21347;-73
2021/05/06 09:32:20;;;;;;;2.43;1.00;;;;;;;13.90;54.65;99870.86;1839471;75;21878;-73
2021/05/06 09:34:54;;;;;;;2.47;1.00;;;;;;;13.90;53.60;99865.50;1841973;76;22589;-73
2021/05/06 09:37:31;;;;;;;2.40;0.90;;;;;;;13.86;53.75;99876.58;1859514;76;21515;-73
2021/05/06 09:40:10;;;;;;;2.13;1.00;;;;;;;13.93;53.60;99881.02;1812972;77;21596;-73
2021/05/06 09:42:48;;;;;;;1.93;0.80;;;;;;;14.02;53.34;99881.38;1806310;77;21462;-73
2021/05/06 09:45:24;;;;;;;1.43;0.80;;;;;;;14.11;53.14;99872.63;1806167;77;21567;-73
2021/05/06 09:48:12;;;;;;;3.07;1.00;;;;;;;14.18;52.93;99881.91;1816499;78;21654;-73
2021/05/06 09:50:45;;;;;;;1.57;0.87;;;;;;;14.12;52.95;99882.30;1814295;78;22693;-73
2021/05/06 09:53:20;;;;;;;1.57;0.87;;;;;;;14.08;53.03;99882.88;1808863;77;21593;-72
2021/05/06 09:55:49;;;;;;;1.70;1.10;;;;;;;14.08;53.15;99893.63;1810903;78;21486;-73
2021/05/06 09:58:23;;;;;;;2.13;1.03;;;;;;;14.00;53.51;99890.81;1806502;77;22056;-72
2021/05/06 10:00:52;;;;;;;3.60;1.37;;;;;;;13.95;53.58;99893.05;1802629;78;22133;-71
2021/05/06 10:03:25;;;;;;;1.63;0.90;;;;;;;13.99;53.35;99890.58;1834097;76;21376;-72
2021/05/06 10:05:54;;;;;;;2.23;1.00;;;;;;;14.16;53.69;99894.82;1836239;77;22079;-73
2021/05/06 10:08:34;;;;;;;3.53;1.00;;;;;;;14.30;52.90;99901.54;1835545;75;21635;-73
2021/05/06 10:11:12;;;;;;;2.67;1.20;;;;;;;14.30;52.90;99901.54;1825684;78;22253;-74
2021/05/06 10:13:54;;;;;;;1.23;0.90;;;;;;;14.40;52.20;99897.87;1818890;77;21683;-73
2021/05/06 10:16:23;;;;;;;;;;;;;;;14.45;51.99;99899.12;1811391;78;21541;-73
2021/05/06 10:18:52;;;;;;;2.00;0.90;;;;;;;14.58;51.57;99898.88;1820064;78;20215;-72
2021/05/06 10:21:21;;;;;;;2.37;1.13;;;;;;;14.70;51.08;99908.03;1814865;77;22181;-74
2021/05/06 10:26:29;;;;;;;4.37;1.83;;;;;;;14.93;50.86;99900.04;1835363;77;22839;-73
2021/05/06 10:28:57;;;;;;;5.13;1.60;;;;;;;15.00;50.66;99862.25;1841889;77;21065;-74
2021/05/06 10:31:25;;;;;;;3.37;1.50;;;;;;;15.18;49.72;99889.28;1808905;78;22536;-73
2021/05/06 10:33:54;;;;;;;4.90;2.80;;;;;;;15.32;49.50;99890.58;1836140;76;22342;-72
2021/05/06 10:36:24;;;;;;;3.40;1.47;;;;;;;15.33;48.71;99896.20;1816914;77;22240;-72
2021/05/06 10:38:51;;;;;;;3.13;1.70;;;;;;;15.35;48.65;99896.70;1802910;78;22462;-73
2021/05/06 10:41:31;;;;;;;2.70;1.70;;;;;;;15.37;47.92;99910.10;1815571;77;21736;-73
2021/05/06 10:44:07;;;;;;;2.42;1.50;;;;;;;15.34;46.93;99909.92;1807147;78;21875;-73
2021/05/06 10:46:59;;;;;;;11.43;6.80;;;;;;;15.22;46.06;99900.47;1815746;78;21129;-73
2021/05/06 10:49:39;;;;;;;14.45;7.10;;;;;;;15.27;46.40;99909.52;1808439;78;22400;-74
2021/05/06 10:52:20;;;;;;;7.40;1.83;;;;;;;15.43;46.42;99913.45;1803729;78;21540;-74
2021/05/06 10:54:50;;;;;;;3.73;1.83;;;;;;;15.61;45.50;99917.08;1811949;77;21817;-72
2021/05/06 10:57:31;;;;;;;3.07;1.60;;;;;;;15.67;43.60;99913.99;1813982;78;21737;-73
2021/05/06 10:59:58;;;;;;;2.23;1.20;;;;;;;15.57;43.39;99916.11;1819417;78;21910;-73
2021/05/06 11:02:48;;;;;;;3.47;1.60;;;;;;;15.48;43.11;99910.09;1815452;78;22246;-73
2021/05/06 11:05:27;;;;;;;3.13;1.40;;;;;;;15.46;43.72;99916.87;1821524;78;21827;-72
2021/05/06 11:08:19;;;;;;;2.13;1.30;;;;;;;15.46;43.72;99916.87;1815632;78;21248;-73
2021/05/06 11:10:52;;;;;;;5.50;1.77;;;;;;;15.62;43.03;99915.97;1811558;78;26585;-72
2021/05/06 11:13:22;;;;;;;3.73;1.53;;;;;;;15.76;42.96;99905.16;1814659;77;21144;-73
2021/05/06 11:15:51;;;;;;;3.07;1.53;;;;;;;15.92;42.66;99908.51;1814167;78;21827;-72
2021/05/06 11:18:44;;;;;;;4.80;1.90;;;;;;;16.02;41.70;99898.02;1815796;78;22475;-72
2021/05/06 11:21:35;;;;;;;3.30;1.30;;;;;;;16.05;41.13;99906.84;1821268;78;21611;-72
2021/05/06 11:24:26;;;;;;;4.60;1.75;;;;;;;16.07;41.84;99907.34;1742181;78;22388;-72
2021/05/06 11:27:13;;;;;;;3.67;1.80;;;;;;;16.09;41.46;99909.70;1812302;78;21701;-73
2021/05/06 11:29:43;;;;;;;3.07;1.50;;;;;;;16.16;40.27;99917.61;1816016;78;22201;-74
2021/05/06 11:32:35;;;;;;;1.80;1.10;;;;;;;16.21;40.02;99931.48;1812171;78;21736;-74
2021/05/06 11:35:11;;;;;;;6.57;1.70;;;;;;;16.23;39.43;99920.42;1813364;78;21170;-71
2021/05/06 11:37:46;;;;;;;3.00;1.30;;;;;;;16.11;40.36;99942.53;1815602;78;22248;-72
2021/05/06 11:40:18;;;;;;;2.60;1.70;;;;;;;16.09;40.59;99924.52;1811543;78;21905;-73
2021/05/06 11:46:57;;;;;;;3.70;1.40;;;;;;;16.22;39.60;99926.33;1812145;78;21854;-73
2021/05/06 11:50:21;;;;;;;2.15;1.32;;;;;;;16.29;37.38;99935.34;1813488;78;22464;-74
2021/05/06 11:57:17;;;;;;;2.70;1.50;;;;;;;16.19;37.00;99936.41;1817610;78;21163;-74
2021/05/06 11:59:46;;;;;;;2.50;1.40;;;;;;;16.22;38.06;99918.25;1805378;78;21209;-74
2021/05/06 12:02:15;;;;;;;4.60;1.50;;;;;;;16.32;37.91;99922.05;1799689;77;21173;-74
2021/05/06 12:04:46;;;;;;;2.00;1.10;;;;;;;16.48;37.74;99918.36;1811004;78;21192;-73
2021/05/06 12:07:16;;;;;;;2.80;1.17;;;;;;;16.68;37.67;99925.09;1762357;78;21403;-73
2021/05/06 12:09:44;;;;;;;3.43;1.67;;;;;;;16.83;37.47;99927.95;1810010;78;21207;-73
2021/05/06 12:12:20;;;;;;;4.03;1.20;;;;;;;16.90;35.97;99929.62;1788562;77;21198;-75
2021/05/06 12:14:49;;;;;;;3.83;1.30;;;;;;;16.80;36.04;99921.27;1812251;77;21166;-74
2021/05/06 12:17:18;;;;;;;4.20;1.27;;;;;;;16.74;36.51;99920.35;1814399;77;21639;-74
2021/05/06 12:19:48;;;;;;;3.00;1.17;;;;;;;16.74;36.93;99915.75;1809722;78;21211;-74
2021/05/06 12:22:16;;;;;;;4.13;1.20;;;;;;;16.79;36.62;99912.16;1809779;77;21173;-74
2021/05/06 12:24:50;;;;;;;2.87;1.50;;;;;;;16.84;36.80;99919.52;1809580;78;21233;-75
2021/05/06 12:27:26;;;;;;;1.97;1.10;;;;;;;16.88;35.90;99922.41;1817876;77;21223;-74
2021/05/06 12:30:03;;;;;;;2.27;1.03;;;;;;;16.85;34.66;99921.70;1813713;77;21616;-73
2021/05/06 12:32:33;;;;;;;3.00;1.07;;;;;;;16.75;35.37;99921.96;1818962;77;22265;-74
2021/05/06 12:35:02;;;;;;;2.30;1.07;;;;;;;16.75;35.08;99909.30;1808223;77;21668;-73
2021/05/06 12:37:32;;;;;;;3.23;0.90;;;;;;;16.76;36.04;99918.17;1811151;78;21191;-73
2021/05/06 12:40:00;;;;;;;2.43;1.13;;;;;;;16.71;36.04;99924.46;1816558;77;21226;-71
2021/05/06 12:42:34;;;;;;;2.10;1.10;;;;;;;16.73;35.63;99919.56;1804536;78;21127;-75
2021/05/06 12:45:07;;;;;;;1.83;1.10;;;;;;;16.73;36.22;99923.61;1821133;77;21366;-74
2021/05/06 12:47:44;;;;;;;2.23;1.00;;;;;;;16.72;35.70;99922.59;1813735;78;21176;-73
2021/05/06 12:50:28;;;;;;;2.47;1.10;;;;;;;16.64;35.36;99922.22;1818852;77;21250;-73
2021/05/06 12:53:08;;;;;;;2.33;1.30;;;;;;;16.62;35.80;99912.88;1810910;78;21163;-73
2021/05/06 12:55:40;;;;;;;2.40;1.10;;;;;;;16.73;34.92;99913.38;1812861;77;21192;-74
2021/05/06 13:01:03;;;;;;;3.47;1.70;;;;;;;16.86;34.73;99913.83;1786243;79;22741;-74
2021/05/06 13:03:42;;;;;;;2.43;1.27;;;;;;;16.85;35.17;99906.86;1768777;79;21632;-74
2021/05/06 13:06:13;;;;;;;6.83;1.20;;;;;;;16.95;34.92;99905.21;1784832;78;21497;-73
2021/05/06 13:08:43;;;;;;;3.37;1.30;;;;;;;17.12;34.07;99908.48;1771006;79;21218;-74
2021/05/06 13:11:18;;;;;;;2.47;1.00;;;;;;;17.14;34.09;99908.15;1768370;79;21855;-73
2021/05/06 13:13:50;;;;;;;3.53;1.20;;;;;;;17.14;34.57;99905.45;1757613;79;21196;-73
2021/05/06 13:16:40;;;;;;;3.90;1.40;;;;;;;17.20;33.78;99896.09;1793357;79;21156;-74
2021/05/06 13:19:17;;;;;;;1.95;1.22;;;;;;;17.19;33.13;99895.86;1795129;78;21361;-73
2021/05/06 13:21:53;;;;;;;3.37;1.10;;;;;;;17.15;33.09;99893.56;1774862;79;21153;-74
2021/05/06 13:24:22;;;;;;;2.80;1.40;;;;;;;17.21;33.10;99907.94;1763138;79;21663;-74
2021/05/06 13:26:50;;;;;;;3.37;1.70;;;;;;;17.37;32.38;99900.70;1773389;79;21153;-74
2021/05/06 13:29:21;;;;;;;2.60;1.57;;;;;;;17.54;32.37;99906.89;1752787;80;21185;-72
2021/05/06 13:31:50;;;;;;;3.47;1.70;;;;;;;17.71;30.93;99899.88;1778772;78;22234;-73
2021/05/06 13:34:26;;;;;;;3.13;1.80;;;;;;;17.74;31.73;99904.65;1779162;78;21615;-73
2021/05/06 13:37:04;;;;;;;3.20;1.50;;;;;;;17.74;31.37;99906.00;1770993;80;21183;-73
2021/05/06 13:39:34;;;;;;;2.90;1.30;;;;;;;17.74;31.02;99906.78;1771155;78;21163;-73
2021/05/06 13:42:02;;;;;;;2.73;1.40;;;;;;;17.71;31.10;99910.69;1772842;80;22506;-71
2021/05/06 13:44:30;;;;;;;3.10;1.37;;;;;;;17.65;30.61;99908.70;1771963;79;21652;-72
2021/05/06 13:47:05;;;;;;;4.07;1.50;;;;;;;17.63;30.77;99916.87;1755450;80;21187;-73
2021/05/06 13:49:35;;;;;;;2.40;1.50;;;;;;;17.61;31.12;99921.27;1754238;79;21670;-73
2021/05/06 13:52:05;;;;;;;2.47;1.37;;;;;;;17.62;31.46;99915.30;1770654;80;21171;-72
2021/05/06 13:54:33;;;;;;;2.63;1.60;;;;;;;17.58;31.21;99915.94;1772842;79;21116;-73
2021/05/06 13:57:01;;;;;;;4.13;1.53;;;;;;;17.69;31.21;99910.20;1770406;78;21367;-72
2021/05/06 13:59:29;;;;;;;2.90;1.30;;;;;;;17.88;31.17;99909.89;1772701;78;21620;-73
2021/05/06 14:01:57;;;;;;;2.50;1.30;;;;;;;18.06;31.12;99906.01;1755077;79;21164;-72
2021/05/06 14:04:25;;;;;;;2.03;1.13;;;;;;;18.23;29.49;99918.13;1750100;80;21122;-73
2021/05/06 14:06:53;;;;;;;2.47;1.40;;;;;;;18.22;30.07;99917.09;1750595;80;21636;-71
2021/05/06 14:09:22;;;;;;;4.00;1.27;;;;;;;18.21;30.00;99911.45;1750373;79;21220;-73
2021/05/06 14:11:51;;;;;;;3.00;1.27;;;;;;;18.18;29.83;99914.81;1754378;80;21141;-73
2021/05/06 14:14:19;;;;;;;4.23;1.40;;;;;;;18.23;29.77;99914.64;1744494;80;21188;-72
2021/05/06 14:16:47;;;;;;;2.57;1.20;;;;;;;18.31;29.20;99915.72;1746357;80;21198;-70
2021/05/06 14:19:17;;;;;;;4.07;1.40;;;;;;;18.24;28.54;99920.27;1751479;80;21502;-73
2021/05/06 14:24:22;;;;;;;2.90;0.90;;;;;;;17.81;29.23;99919.83;1828912;77;21346;-73
2021/05/06 14:26:50;;;;;;;2.77;1.10;;;;;;;17.56;29.92;99920.06;1831169;77;21645;-73
2021/05/06 14:29:19;;;;;;;3.73;1.60;;;;;;;17.28;30.60;99920.39;1828341;77;21534;-73
2021/05/06 14:31:47;;;;;;;4.97;2.47;;;;;;;17.07;30.68;99919.41;1831502;76;21093;-73
2021/05/06 14:34:16;;;;;;;3.23;2.00;;;;;;;17.15;31.08;99917.85;1829550;77;21118;-73
2021/05/06 14:36:44;;;;;;;3.70;1.53;;;;;;;17.39;30.73;99918.73;1826085;77;21116;-71
2021/05/06 14:39:13;;;;;;;3.77;2.20;;;;;;;17.61;30.16;99913.72;1811173;78;21129;-73
2021/05/06 14:41:42;;;;;;;4.20;1.30;;;;;;;17.72;29.97;99919.02;1806766;78;21196;-73
2021/05/06 14:44:10;;;;;;;2.33;1.00;;;;;;;17.71;29.71;99914.17;1813494;77;21630;-73
2021/05/06 14:46:38;;;;;;;2.77;1.13;;;;;;;17.75;29.35;99915.12;1806907;77;21607;-73
2021/05/06 14:49:06;;;;;;;4.37;1.47;;;;;;;17.79;30.02;99915.30;1805636;77;21144;-73
2021/05/06 14:51:35;;;;;;;2.23;1.10;;;;;;;17.84;29.78;99913.80;1809897;77;21194;-74
2021/05/06 14:54:06;;;;;;;3.67;1.20;;;;;;;18.12;29.89;99916.88;1838220;76;22815;-74
2021/05/06 14:56:34;;;;;;;1.57;0.90;;;;;;;18.70;28.98;99911.31;1825138;77;21142;-73
2021/05/06 14:59:02;;;;;;;1.70;0.83;;;;;;;19.21;28.53;99916.16;1812415;77;21140;-72
2021/05/06 15:01:33;;;;;;;3.07;1.00;;;;;;;19.52;27.35;99919.04;1807996;78;21175;-73
2021/05/06 15:04:01;;;;;;;3.67;1.30;;;;;;;19.76;26.52;99908.09;1808735;78;21143;-73
2021/05/06 15:06:29;;;;;;;4.53;1.40;;;;;;;20.18;26.41;99903.33;1807880;78;21230;-73
2021/05/06 15:09:02;;;;;;;3.30;1.13;;;;;;;20.68;25.46;99910.37;1807907;77;21139;-75
2021/05/06 15:11:28;;;;;;;3.43;1.40;;;;;;;21.20;24.68;99907.46;1799602;78;21120;-73
2021/05/06 15:13:56;;;;;;;4.20;1.43;;;;;;;21.68;23.25;99907.85;1809981;78;21114;-71
2021/05/06 15:16:23;;;;;;;3.77;1.40;;;;;;;21.91;22.63;99910.00;1809641;77;21196;-72
2021/05/06 15:18:51;;;;;;;2.80;1.40;;;;;;;21.95;21.59;99910.91;1808989;78;21597;-71
2021/05/06 15:21:19;;;;;;;4.20;1.13;;;;;;;22.07;21.40;99920.33;1807708;77;21215;-73
2021/05/06 15:23:49;;;;;;;2.17;1.07;;;;;;;22.19;20.89;99921.64;1813857;77;21125;-73
2021/05/06 15:26:17;;;;;;;2.10;0.97;;;;;;;22.00;19.57;99922.30;1809273;77;21663;-73
2021/05/06 15:28:47;;;;;;;3.57;0.80;;;;;;;21.77;19.70;99922.08;1800373;78;21145;-72
2021/05/06 15:31:15;;;;;;;1.60;0.80;;;;;;;21.75;20.08;99925.73;1839359;77;21229;-74